Data for 11/08/2005

Time Sea-Level Adjusted Pressure Absolute Pressure Temperature Relative Humidity Dew Point   
(mb) (inHg) (mb) (inHg) (C) (F) (%) (C) (F)
00:05 1008 29.77 837 24.72 10.5 50.9 47 -0.3 31.5
00:10 1008 29.77 837 24.72 10.5 50.9 47 -0.2 31.6
00:15 1008 29.77 837 24.72 10.4 50.8 49 0.1 32.2
00:20 1008 29.77 837 24.72 10.5 50.9 48 -0 31.9
00:25 1008 29.77 837 24.72 10.5 50.8 48 0.1 32.2
00:30 1008 29.77 837 24.72 10.5 50.9 49 0.2 32.4
00:35 1008 29.77 837 24.72 10.4 50.8 48 -0.2 31.7
00:40 1008 29.77 837 24.72 10.6 51 48 0 32
00:45 1008 29.77 837 24.72 10.5 50.8 49 0.3 32.5
00:50 1008 29.77 837 24.72 10.3 50.5 49 -0 32
00:55 1008 29.77 837 24.72 10.3 50.6 48 -0.2 31.6
01:00 1008 29.77 837 24.72 10.5 50.9 47 -0.2 31.6
01:05 1008 29.77 837 24.72 10.7 51.3 46 -0.3 31.5
01:10 1008 29.77 837 24.72 10.7 51.2 48 0.1 32.2
01:15 1008 29.77 837 24.72 10.6 51 47 -0.3 31.5
01:20 1008 29.77 837 24.72 10.6 51.1 46 -0.4 31.3
01:25 1008 29.77 837 24.72 10.9 51.6 45 -0.4 31.2
01:30 1008 29.77 837 24.72 10.9 51.7 46 -0.2 31.6
01:35 1008 29.77 837 24.72 10.5 50.9 48 0.1 32.2
01:40 1008 29.77 837 24.72 10.6 51.1 47 -0.2 31.7
01:45 1008 29.77 837 24.72 10.6 51.1 48 0.2 32.4
01:50 1008 29.77 837 24.72 10.3 50.5 52 0.9 33.7
01:55 1008 29.77 837 24.72 8.1 46.5 61 1 33.8
02:00 1008 29.77 837 24.72 7.4 45.3 62 0.5 32.9
02:05 1008 29.77 837 24.72 6.8 44.2 67 1.1 34.1
02:10 1008 29.77 837 24.72 5.6 42.1 71 0.9 33.5
02:15 1008 29.77 837 24.72 5.1 41.1 74 0.7 33.3
02:20 1008 29.77 837 24.72 4.7 40.4 76 0.7 33.3
02:25 1008 29.77 838 24.75 4.2 39.5 78 0.6 33.2
02:30 1009 29.8 838 24.75 3.9 39 80 0.7 33.2
02:35 1008 29.77 837 24.72 3.9 39 77 0.3 32.5
02:40 1008 29.77 838 24.75 4.5 40.1 76 0.6 33.2
02:45 1009 29.8 838 24.75 4.1 39.4 79 0.7 33.3
02:50 1009 29.8 838 24.75 3.5 38.2 82 0.6 33.1
02:55 1009 29.8 838 24.75 3.1 37.5 83 0.5 33
03:00 1009 29.8 838 24.75 2.7 36.9 86 0.6 33.1
03:05 1009 29.8 838 24.75 2.5 36.5 87 0.6 33.2
03:10 1009 29.8 838 24.75 2.4 36.2 88 0.6 33.1
03:15 1009 29.8 838 24.75 2.3 36.2 89 0.7 33.3
03:20 1009 29.8 838 24.75 2.1 35.8 91 0.7 33.3
03:25 1009 29.8 839 24.78 2 35.6 92 0.8 33.4
03:30 1010 29.83 839 24.78 1.8 35.2 93 0.8 33.4
03:35 1010 29.83 839 24.78 1.6 34.9 93 0.6 33.2
03:40 1010 29.83 839 24.78 1.5 34.8 94 0.6 33.1
03:45 1010 29.83 839 24.78 1.4 34.6 93 0.5 32.9
03:50 1010 29.83 839 24.78 1.2 34.1 94 0.3 32.6
03:55 1010 29.83 839 24.78 1.1 33.9 95 0.3 32.5
04:00 1010 29.83 839 24.78 0.8 33.4 96 0.2 32.3
04:05 1010 29.83 839 24.78 0.7 33.2 97 0.2 32.4
04:10 1010 29.83 840 24.81 0.6 33 97 0.1 32.3
04:15 1011 29.85 840 24.81 0.5 33 98 0.2 32.3
04:20 1011 29.85 840 24.81 0.5 32.9 98 0.2 32.3
04:25 1011 29.85 840 24.81 0.4 32.8 98 0.1 32.2
04:30 1011 29.85 840 24.81 0.5 32.8 98 0.2 32.3
04:35 1011 29.85 840 24.81 0.3 32.6 98 0.1 32.2
04:40 1011 29.85 840 24.81 0.4 32.7 98 0.2 32.3
04:45 1011 29.85 840 24.81 0.3 32.5 98 0 32.1
04:50 1011 29.85 841 24.83 0.3 32.6 99 0.1 32.2
04:55 1011 29.85 841 24.83 0.3 32.6 99 0.1 32.3
05:00 1012 29.88 841 24.83 0.3 32.6 99 0.1 32.2
05:05 1012 29.88 841 24.83 0.3 32.5 99 0.1 32.2
05:10 1012 29.88 841 24.83 0.3 32.6 99 0.1 32.2
05:15 1012 29.88 841 24.83 0.2 32.4 99 0 32.1
05:20 1012 29.88 841 24.83 0.3 32.5 99 0.1 32.2
05:25 1012 29.88 841 24.83 0.3 32.5 99 0.1 32.2
05:30 1012 29.88 841 24.83 0.3 32.5 99 0.1 32.1
05:35 1012 29.88 842 24.86 0.2 32.3 99 -0 32
05:40 1013 29.91 842 24.86 0.1 32.2 99 -0.1 31.9
05:45 1013 29.91 842 24.86 0 32.1 99 -0.1 31.7
05:50 1013 29.91 842 24.86 0 32 99 -0.2 31.7
05:55 1013 29.91 842 24.86 0 32 99 -0.1 31.7
06:00 1013 29.91 842 24.86 -0 31.9 99 -0.2 31.7
06:05 1013 29.91 842 24.86 -0 32 99 -0.1 31.8
06:10 1013 29.91 842 24.86 -0 31.9 99 -0.1 31.7
06:15 1013 29.91 842 24.86 -0 32 99 -0.1 31.8
06:20 1013 29.91 842 24.86 -0 31.9 99 -0.2 31.7
06:25 1013 29.91 842 24.86 -0.1 31.9 99 -0.2 31.6
06:30 1013 29.91 843 24.89 -0.1 31.9 99 -0.2 31.7
06:35 1014 29.94 843 24.89 -0.1 31.8 99 -0.2 31.7
06:40 1014 29.94 843 24.89 -0.1 31.8 99 -0.2 31.6
06:45 1014 29.94 843 24.89 -0.2 31.7 99 -0.3 31.5
06:50 1014 29.94 843 24.89 -0.2 31.6 99 -0.3 31.4
06:55 1014 29.94 843 24.89 -0.3 31.5 99 -0.4 31.4
07:00 1014 29.94 843 24.89 -0.3 31.4 99 -0.4 31.2
07:05 1014 29.94 843 24.89 -0.4 31.2 99 -0.5 31
07:10 1014 29.94 843 24.89 -0.5 31.2 100 -0.5 31
07:15 1014 29.94 843 24.89 -0.4 31.2 99 -0.5 31.1
07:20 1014 29.94 843 24.89 -0.5 31 99 -0.6 30.9
07:25 1014 29.94 844 24.92 -0.5 31 99 -0.6 30.9
07:30 1014 29.94 844 24.92 -0.6 30.9 99 -0.7 30.8
07:35 1015 29.97 844 24.92 -0.6 30.9 100 -0.6 30.9
07:40 1015 29.97 844 24.92 -0.6 31 100 -0.6 30.9
07:45 1015 29.97 844 24.92 -0.6 30.9 100 -0.6 30.9
07:50 1015 29.97 844 24.92 -0.6 30.8 100 -0.7 30.7
07:55 1015 29.97 844 24.92 -0.7 30.8 100 -0.7 30.7
08:00 1015 29.97 845 24.95 -0.7 30.8 100 -0.7 30.7
08:05 1015 29.97 845 24.95 -0.7 30.8 100 -0.7 30.8
08:10 1015 29.97 845 24.95 -0.7 30.8 100 -0.7 30.7
08:15 1016 30 845 24.95 -0.6 30.8 100 -0.7 30.7
08:20 1016 30 845 24.95 -0.7 30.7 100 -0.7 30.7
08:25 1016 30 845 24.95 -0.8 30.6 100 -0.8 30.5
08:30 1016 30 845 24.95 -0.9 30.3 100 -1 30.3
08:35 1016 30 845 24.95 -1.1 30.1 100 -1.1 30
08:40 1016 30 845 24.95 -1 30.2 100 -1 30.2
08:45 1016 30 846 24.98 -1 30.2 100 -1 30.2
08:50 1016 30 846 24.98 -1.1 30.1 100 -1.1 30
08:55 1017 30.03 846 24.98 -1.1 30 100 -1.2 29.9
09:00 1017 30.03 846 24.98 -1.1 30 100 -1.1 29.9
09:05 1017 30.03 846 24.98 -1.2 29.8 99 -1.3 29.7
09:10 1017 30.03 846 24.98 -1.4 29.5 99 -1.4 29.4
09:15 1017 30.03 847 25.01 -1.5 29.2 99 -1.6 29.1
09:20 1017 30.03 847 25.01 -1.6 29.1 99 -1.8 28.8
09:25 1018 30.06 847 25.01 -1.9 28.6 99 -2 28.4
09:30 1018 30.06 847 25.01 -2.1 28.2 99 -2.3 27.9
09:35 1018 30.06 847 25.01 -2.4 27.8 99 -2.5 27.5
09:40 1018 30.06 847 25.01 -2.4 27.7 99 -2.5 27.4
09:45 1018 30.06 848 25.04 -2.4 27.7 99 -2.5 27.5
09:50 1019 30.09 848 25.04 -2.4 27.7 99 -2.5 27.5
09:55 1019 30.09 848 25.04 -2.3 27.9 99 -2.4 27.7
10:00 1019 30.09 848 25.04 -2.3 27.9 99 -2.4 27.7
10:05 1019 30.09 848 25.04 -2.2 28 99 -2.3 27.8
10:10 1019 30.09 848 25.04 -2.1 28.1 99 -2.3 27.9
10:15 1019 30.09 848 25.04 -2.1 28.2 99 -2.2 28
10:20 1019 30.09 848 25.04 -2.1 28.3 99 -2.2 28
10:25 1019 30.09 849 25.07 -1.9 28.6 99 -2 28.3
10:30 1020 30.12 849 25.07 -2 28.5 99 -2.1 28.1
10:35 1020 30.12 849 25.07 -1.9 28.6 99 -2 28.3
10:40 1020 30.12 849 25.07 -1.8 28.7 99 -2 28.3
10:45 1020 30.12 849 25.07 -1.8 28.8 98 -2 28.4
10:50 1020 30.12 849 25.07 -1.7 28.9 99 -1.9 28.6
10:55 1020 30.12 849 25.07 -1.6 29.2 99 -1.8 28.8
11:00 1020 30.12 849 25.07 -1.5 29.2 97 -1.9 28.5
11:05 1020 30.12 849 25.07 -1.8 28.8 97 -2.3 27.9
11:10 1020 30.12 849 25.07 -2 28.4 97 -2.4 27.8
11:15 1020 30.12 849 25.07 -1.9 28.6 97 -2.2 28
11:20 1020 30.12 849 25.07 -1.9 28.5 96 -2.5 27.5
11:25 1020 30.12 849 25.07 -2 28.5 96 -2.6 27.4
11:30 1020 30.12 849 25.07 -2 28.5 96 -2.5 27.4
11:35 1020 30.12 849 25.07 -1.3 29.6 94 -2.2 28
11:40 1020 30.12 849 25.07 -0.6 31 86 -2.7 27.2
11:45 1020 30.12 849 25.07 -0.5 31.2 82 -3.2 26.2
11:50 1020 30.12 849 25.07 -0.2 31.6 80 -3.2 26.2
11:55 1020 30.12 849 25.07 -0.1 31.8 81 -2.9 26.7
12:00 1020 30.12 849 25.07 0.1 32.2 79 -3.1 26.5
12:05 1020 30.12 849 25.07 0.2 32.4 78 -3.1 26.4
12:10 1020 30.12 850 25.1 0.4 32.7 76 -3.4 25.9
12:15 1020 30.12 850 25.1 0.4 32.8 78 -2.9 26.7
12:20 1021 30.15 850 25.1 0.6 33 74 -3.5 25.7
12:25 1021 30.15 850 25.1 0.7 33.3 74 -3.5 25.7
12:30 1021 30.15 850 25.1 1.1 34 71 -3.6 25.5
12:35 1021 30.15 850 25.1 1.4 34.5 70 -3.5 25.7
12:40 1021 30.15 850 25.1 1.6 34.9 71 -3.1 26.5
12:45 1021 30.15 850 25.1 1.6 34.9 69 -3.5 25.6
12:50 1021 30.15 850 25.1 0.9 33.6 68 -4.4 24.1
12:55 1021 30.15 850 25.1 0.3 32.6 70 -4.5 23.9
13:00 1021 30.15 850 25.1 0.1 32.2 68 -5 22.9
13:05 1021 30.15 850 25.1 0.2 32.4 68 -5 22.9
13:10 1021 30.15 851 25.13 1.1 34 63 -5.1 22.9
13:15 1021 30.15 851 25.13 1 33.8 67 -4.5 23.8
13:20 1021 30.15 851 25.13 0.9 33.6 65 -5 23
13:25 1022 30.18 851 25.13 1.4 34.5 61 -5.4 22.4
13:30 1022 30.18 851 25.13 2 35.6 59 -5.2 22.7
13:35 1022 30.18 851 25.13 2.2 36 59 -5 23
13:40 1022 30.18 851 25.13 2.1 35.8 57 -5.5 22
13:45 1022 30.18 851 25.13 1.4 34.5 58 -5.9 21.3
13:50 1022 30.18 851 25.13 1.8 35.2 58 -5.6 22
13:55 1022 30.18 851 25.13 2.3 36.2 53 -6.3 20.6
14:00 1021 30.15 851 25.13 2.9 37.1 54 -5.5 22.1
14:05 1022 30.18 851 25.13 3.3 37.9 52 -5.7 21.8
14:10 1022 30.18 851 25.13 3.5 38.2 46 -7.1 19.2
14:15 1022 30.18 851 25.13 3.1 37.5 50 -6.4 20.5
14:20 1022 30.18 851 25.13 2.6 36.7 55 -5.6 21.9
14:25 1022 30.18 851 25.13 1.5 34.7 55 -6.5 20.2
14:30 1022 30.18 851 25.13 1.7 35 53 -7 19.4
14:35 1022 30.18 851 25.13 2.2 36 52 -6.7 19.9
14:40 1022 30.18 851 25.13 3.1 37.5 49 -6.5 20.2
14:45 1022 30.18 851 25.13 3.3 37.9 48 -6.7 19.9
14:50 1022 30.18 851 25.13 3.4 38.2 49 -6.4 20.4
14:55 1022 30.18 851 25.13 2.8 37 51 -6.3 20.7
15:00 1022 30.18 851 25.13 2 35.5 54 -6.4 20.4
15:05 1022 30.18 851 25.13 1.2 34.2 58 -6.1 21
15:10 1022 30.18 851 25.13 0.9 33.6 56 -7 19.3
15:15 1022 30.18 851 25.13 1.5 34.8 52 -7.2 19
15:20 1022 30.18 851 25.13 2 35.5 54 -6.4 20.4
15:25 1022 30.18 851 25.13 1.9 35.3 57 -5.8 21.5
15:30 1022 30.18 851 25.13 1.6 34.9 56 -6.2 20.8
15:35 1022 30.18 851 25.13 1.1 34 58 -6.3 20.6
15:40 1022 30.18 851 25.13 1 33.8 57 -6.5 20.3
15:45 1022 30.18 851 25.13 1.5 34.7 57 -6.1 21.1
15:50 1022 30.18 851 25.13 1.8 35.3 57 -5.8 21.6
15:55 1022 30.18 851 25.13 1.9 35.5 58 -5.5 22.1
16:00 1022 30.18 851 25.13 1.6 34.8 56 -6.2 20.9
16:05 1022 30.18 851 25.13 1.6 34.9 58 -5.8 21.6
16:10 1022 30.18 851 25.13 1 33.8 55 -7.1 19.3
16:15 1022 30.18 851 25.13 0.6 33.1 60 -6.3 20.6
16:20 1022 30.18 851 25.13 0.4 32.7 60 -6.4 20.5
16:25 1022 30.18 851 25.13 0.2 32.4 62 -6.2 20.8
16:30 1022 30.18 852 25.16 0.2 32.3 65 -5.6 21.9
16:35 1022 30.18 852 25.16 -0.4 31.3 66 -5.9 21.3
16:40 1022 30.18 851 25.13 -0.8 30.6 66 -6.4 20.4
16:45 1022 30.18 851 25.13 -0.6 30.9 64 -6.6 20.1
16:50 1022 30.18 851 25.13 -0.6 30.9 66 -6.3 20.7
16:55 1022 30.18 851 25.13 -1.1 30 69 -6.1 21.1
17:00 1022 30.18 852 25.16 -1.2 29.8 67 -6.6 20.1
17:05 1022 30.18 851 25.13 -1.1 30.1 66 -6.6 20
17:10 1022 30.18 852 25.16 -1.4 29.5 73 -5.7 21.7
17:15 1022 30.18 852 25.16 -2.1 28.3 80 -5 23
17:20 1023 30.21 852 25.16 -2.7 27.2 80 -5.7 21.8
17:25 1023 30.21 852 25.16 -2.6 27.3 79 -5.7 21.7
17:30 1023 30.21 852 25.16 -2.3 27.8 80 -5.3 22.5
17:35 1023 30.21 852 25.16 -2.4 27.6 78 -5.8 21.5
17:40 1023 30.21 852 25.16 -3 26.6 81 -5.8 21.6
17:45 1023 30.21 852 25.16 -3.4 25.9 81 -6.2 20.8
17:50 1023 30.21 852 25.16 -3.5 25.7 81 -6.3 20.7
17:55 1023 30.21 852 25.16 -3.6 25.5 83 -6.1 21.1
18:00 1023 30.21 852 25.16 -3.7 25.3 82 -6.4 20.4
18:05 1023 30.21 852 25.16 -3.8 25.1 80 -6.8 19.7
18:10 1023 30.21 852 25.16 -3.6 25.6 77 -7.1 19.3
18:15 1023 30.21 852 25.16 -3.5 25.7 78 -6.8 19.8
18:20 1023 30.21 852 25.16 -3.5 25.7 77 -6.9 19.6
18:25 1023 30.21 852 25.16 -3.8 25.1 76 -7.5 18.6
18:30 1023 30.21 852 25.16 -3.7 25.3 73 -7.9 17.7
18:35 1023 30.21 852 25.16 -3.5 25.7 76 -7.2 19.1
18:40 1023 30.21 852 25.16 -3.7 25.3 79 -6.9 19.5
18:45 1023 30.21 852 25.16 -3.7 25.3 78 -7 19.4
18:50 1023 30.21 852 25.16 -4.2 24.4 82 -6.9 19.6
18:55 1023 30.21 853 25.19 -4.6 23.7 81 -7.4 18.7
19:00 1023 30.21 853 25.19 -4.5 23.9 80 -7.5 18.4
19:05 1023 30.21 853 25.19 -4.6 23.7 80 -7.5 18.5
19:10 1023 30.21 853 25.19 -4.8 23.3 82 -7.5 18.6
19:15 1023 30.21 853 25.19 -4.8 23.4 80 -7.7 18.2
19:20 1024 30.24 853 25.19 -4.7 23.5 79 -7.8 17.9
19:25 1024 30.24 853 25.19 -4.7 23.6 79 -7.9 17.8
19:30 1024 30.24 853 25.19 -4.7 23.5 80 -7.6 18.3
19:35 1024 30.24 853 25.19 -4.9 23.2 81 -7.6 18.3
19:40 1024 30.24 853 25.19 -5.1 22.9 81 -7.9 17.8
19:45 1024 30.24 853 25.19 -4.8 23.3 79 -8 17.6
19:50 1024 30.24 853 25.19 -4.7 23.6 78 -8 17.5
19:55 1023 30.21 853 25.19 -4.7 23.5 77 -8.1 17.4
20:00 1023 30.21 853 25.19 -5.1 22.9 79 -8.1 17.4
20:05 1024 30.24 853 25.19 -5.4 22.2 82 -8 17.6
20:10 1024 30.24 853 25.19 -5.3 22.5 81 -8 17.7
20:15 1024 30.24 853 25.19 -5.2 22.7 81 -8 17.6
20:20 1024 30.24 853 25.19 -5.3 22.4 82 -8 17.7
20:25 1024 30.24 853 25.19 -5.3 22.4 82 -7.9 17.7
20:30 1024 30.24 853 25.19 -5.4 22.3 81 -8.2 17.3
20:35 1024 30.24 853 25.19 -5 23 78 -8.2 17.2
20:40 1024 30.24 853 25.19 -5 23.1 79 -8.1 17.5
20:45 1024 30.24 853 25.19 -5 23.1 78 -8.2 17.2
20:50 1024 30.24 853 25.19 -4.7 23.6 77 -8.2 17.3
20:55 1024 30.24 853 25.19 -4.8 23.3 78 -8.1 17.5
21:00 1024 30.24 853 25.19 -5.1 22.8 79 -8.2 17.2
21:05 1024 30.24 853 25.19 -5.4 22.2 81 -8.3 17.1
21:10 1024 30.24 853 25.19 -5.5 22.1 81 -8.3 17
21:15 1024 30.24 853 25.19 -5.3 22.4 78 -8.5 16.7
21:20 1024 30.24 853 25.19 -5 23.1 77 -8.4 16.8
21:25 1024 30.24 853 25.19 -4.7 23.6 77 -8.2 17.3
21:30 1024 30.24 853 25.19 -5 23.1 78 -8.2 17.3
21:35 1024 30.24 853 25.19 -5.2 22.7 78 -8.4 16.8
21:40 1024 30.24 853 25.19 -4.4 24.1 73 -8.6 16.5
21:45 1024 30.24 853 25.19 -4.4 24.1 75 -8.2 17.3
21:50 1024 30.24 853 25.19 -4.8 23.4 78 -8.1 17.4
21:55 1024 30.24 853 25.19 -5.3 22.5 79 -8.3 17
22:00 1024 30.24 853 25.19 -5.1 22.8 76 -8.8 16.1
22:05 1024 30.24 853 25.19 -4.8 23.3 75 -8.6 16.6
22:10 1024 30.24 853 25.19 -4.9 23.1 75 -8.7 16.4
22:15 1024 30.24 853 25.19 -4.8 23.3 75 -8.5 16.7
22:20 1024 30.24 853 25.19 -4.8 23.3 78 -8.2 17.3
22:25 1024 30.24 853 25.19 -5.2 22.6 81 -8 17.6
22:30 1024 30.24 853 25.19 -5.3 22.4 79 -8.4 16.9
22:35 1024 30.24 853 25.19 -5.4 22.3 77 -8.7 16.3
22:40 1024 30.24 853 25.19 -4.9 23.2 76 -8.5 16.8
22:45 1024 30.24 853 25.19 -4.9 23.2 77 -8.4 17
22:50 1024 30.24 853 25.19 -4.9 23.1 78 -8.2 17.3
22:55 1024 30.24 853 25.19 -5.4 22.3 80 -8.3 17.1
23:00 1024 30.24 853 25.19 -5.6 21.9 79 -8.8 16.2
23:05 1024 30.24 853 25.19 -5.3 22.4 77 -8.8 16.1
23:10 1024 30.24 853 25.19 -5.1 22.8 76 -8.8 16.2
23:15 1024 30.24 854 25.22 -5.6 22 79 -8.7 16.4
23:20 1024 30.24 854 25.22 -6 21.2 80 -8.9 16.1
23:25 1024 30.24 854 25.22 -5.8 21.6 80 -8.7 16.3
23:30 1024 30.24 854 25.22 -5.6 22 79 -8.7 16.4
23:35 1024 30.24 854 25.22 -5.3 22.4 80 -8.3 17.1
23:40 1025 30.27 854 25.22 -5.4 22.2 80 -8.4 16.8
23:45 1024 30.24 854 25.22 -5.8 21.6 81 -8.5 16.6
23:50 1024 30.24 854 25.22 -6 21.2 80 -9 15.8
23:55 1024 30.24 854 25.22 -6 21.2 80 -9 15.9
24:00 1025 30.27 854 25.22 -6 21.2 80 -8.8 16.1